Ashton, Idaho
Current Conditions -  °F | °C
As of 6:53 PM on Sunday 21 Dec 2014 (Local Time) from KRXE Reporting Station
Broken Clouds Broken Clouds  
Wind Chill: -2°   Ceiling: 9500
Heat Index:   Visibility: 10mi
Dew Point: -1°   Wind: 7mph
Humidity: 82%   Direction: 260°W
Pressure: 29.86"   Gusts: NA
Location:  44.07°N, 111.45°W
Report Text: KRXE 220153Z AUTO 26006KT 10SM BKN095 02/M01 A2986 RMK AO2 SLP121 T00171011
Loading
Personal Weather Stations






























Interactive Weather Map New forecast layout! Learn more

10-Day Weather Forecast

Advertisements
Track Severe Weather on mobile